Portada
METAR-TAF:

METAR-TAF

Aeropuertos :

Willmar Municipal Airport (John L. Rice Field)

Willmar, Minnesota, Estados Unidos

latitud: 45-07N, longitud: 095-05W, altitud: 344 m

Observación

El informe se hizo hace 24 minutos, a las 00:56 UTC
Viento 17 kt del noroeste con ráfagas de 21 kt
Temperatura 21°C
Humedad 35%
Presión 1017 hPa
Visibilidad: 16.1 km
Cielo despejado

METAR: KBDH 290056Z AUTO 32017G21KT 10SM CLR 21/05 A3004 RMK AO2

Hora: 20:20 (01:20 UTC)


TAF: falta

Observaciones y pronósticos meteorológicos de más de 4000 aeropuertos (mensajes METAR y TAF).

Los puntos amarillos y rojos representan las estaciones disponibles.

Ponga el ratón en el punto deseado para ver el nombre de la estación.

Haga clic para ver las observaciones y los pronósticos meteorológicos.

Para cambiar el mapa : haga clic en los botones verdes con una cruz de color negro para hacer un zoom, en el botón verde con un guión para alejar o en las flechas verdes para mapas adyacentes.


METAR-TAF: